createdAt,value
2023-05-02T00:01:23.566Z,12.40
2023-05-02T00:06:26.572Z,12.51
2023-05-02T00:11:30.710Z,12.41
2023-05-02T00:16:33.439Z,11.72
2023-05-02T00:21:36.171Z,11.34
2023-05-02T00:26:40.228Z,10.96
2023-05-02T00:31:43.286Z,11.03
2023-05-02T00:36:46.204Z,10.98
2023-05-02T00:41:50.535Z,11.02
2023-05-02T00:46:53.787Z,10.86
2023-05-02T00:51:56.686Z,10.82
2023-05-02T00:57:00.587Z,10.91
2023-05-02T01:02:20.756Z,10.91
2023-05-02T01:07:37.688Z,10.88
2023-05-02T01:12:44.399Z,10.87
2023-05-02T01:17:49.562Z,10.70
2023-05-02T01:22:53.497Z,10.55
2023-05-02T01:28:09.884Z,10.64
2023-05-02T01:33:17.497Z,10.76
2023-05-02T01:38:21.693Z,10.78
2023-05-02T01:43:27.051Z,11.00
2023-05-02T01:48:31.475Z,11.12
2023-05-02T01:53:36.838Z,11.27
2023-05-02T01:58:40.685Z,11.19
2023-05-02T02:03:46.099Z,11.28
2023-05-02T02:08:49.335Z,11.12
2023-05-02T02:13:59.900Z,11.14
2023-05-02T02:19:08.373Z,10.73
2023-05-02T02:24:13.640Z,10.20
2023-05-02T02:29:16.324Z,10.71
2023-05-02T02:34:21.096Z,10.69
2023-05-02T02:39:36.840Z,10.48
2023-05-02T02:44:48.486Z,10.39
2023-05-02T02:50:07.180Z,11.03
2023-05-02T02:55:14.102Z,10.83
2023-05-02T03:00:21.282Z,11.00
2023-05-02T03:05:26.340Z,10.59
2023-05-02T03:10:29.117Z,10.41
2023-05-02T03:16:13.543Z,10.03
2023-05-02T03:21:18.495Z,10.83
2023-05-02T03:26:22.432Z,10.43
2023-05-02T03:31:26.919Z,10.35
2023-05-02T03:36:31.776Z,10.65
2023-05-02T03:41:34.675Z,10.58
2023-05-02T03:46:43.061Z,10.76
2023-05-02T03:51:49.500Z,10.54
2023-05-02T03:56:58.106Z,10.92
2023-05-02T04:02:05.746Z,10.72
2023-05-02T04:07:19.319Z,10.42
2023-05-02T04:12:26.567Z,10.01
2023-05-02T04:17:30.071Z,10.32
2023-05-02T04:22:34.431Z,10.51
2023-05-02T04:27:40.795Z,10.50
2023-05-02T04:32:47.982Z,10.37
2023-05-02T04:37:52.639Z,10.26
2023-05-02T04:42:55.666Z,10.06
2023-05-02T04:48:01.106Z,10.29
2023-05-02T04:53:05.480Z,10.31
2023-05-02T04:58:09.843Z,10.21
2023-05-02T05:03:12.864Z,9.83
2023-05-02T05:08:17.211Z,9.96
2023-05-02T05:13:20.028Z,8.81
2023-05-02T05:18:24.962Z,9.75
2023-05-02T05:23:29.232Z,9.76
2023-05-02T05:28:32.187Z,9.70
2023-05-02T05:33:35.248Z,9.76
2023-05-02T05:38:40.518Z,9.46
2023-05-02T05:43:45.420Z,9.40
2023-05-02T05:48:48.708Z,9.31
2023-05-02T05:53:53.339Z,8.94
2023-05-02T05:58:56.224Z,8.76
2023-05-02T06:03:59.266Z,8.70
2023-05-02T06:09:04.220Z,8.66
2023-05-02T06:14:08.599Z,8.66
2023-05-02T06:19:12.291Z,8.64
2023-05-02T06:24:16.935Z,8.54
2023-05-02T06:29:19.795Z,8.54
2023-05-02T06:34:22.521Z,8.49
2023-05-02T06:39:26.650Z,8.51
2023-05-02T06:44:29.544Z,8.63
2023-05-02T06:49:32.342Z,8.72
2023-05-02T06:54:36.504Z,8.77
2023-05-02T06:59:39.241Z,8.98
2023-05-02T07:04:42.069Z,9.01
2023-05-02T07:09:46.236Z,8.87
2023-05-02T07:14:49.034Z,8.70
2023-05-02T07:19:51.782Z,8.77
2023-05-02T07:25:00.162Z,9.24
2023-05-02T07:30:03.372Z,9.39
2023-05-02T07:35:07.274Z,9.14
2023-05-02T07:40:12.131Z,9.24
2023-05-02T07:45:14.881Z,9.42
2023-05-02T07:50:17.792Z,9.51
2023-05-02T07:55:22.197Z,9.62
2023-05-02T08:00:25.023Z,9.57
2023-05-02T08:05:27.953Z,9.51
2023-05-02T08:10:32.055Z,9.71
2023-05-02T08:15:35.206Z,9.68
2023-05-02T08:20:38.142Z,9.51
2023-05-02T08:25:43.534Z,9.42
2023-05-02T08:30:46.408Z,9.51
2023-05-02T08:35:49.380Z,9.36
2023-05-02T08:40:53.544Z,9.32
2023-05-02T08:46:00.814Z,9.42
2023-05-02T08:51:03.993Z,9.61
2023-05-02T08:56:10.325Z,9.63
2023-05-02T09:01:16.430Z,10.22
2023-05-02T09:06:21.328Z,10.03
2023-05-02T09:11:25.647Z,10.22
2023-05-02T09:16:29.419Z,10.01
2023-05-02T09:21:38.032Z,10.72
2023-05-02T09:26:42.221Z,10.84
2023-05-02T09:31:55.456Z,10.55
2023-05-02T09:36:59.346Z,10.77
2023-05-02T09:42:04.066Z,11.22
2023-05-02T09:47:08.980Z,10.86
2023-05-02T09:52:12.952Z,10.79
2023-05-02T09:57:17.172Z,11.40
2023-05-02T10:02:21.878Z,11.31
2023-05-02T10:07:26.010Z,11.60
2023-05-02T10:12:31.684Z,11.50
2023-05-02T10:17:42.177Z,11.93
2023-05-02T10:22:47.049Z,11.67
2023-05-02T10:27:51.353Z,12.02
2023-05-02T10:32:54.985Z,12.10
2023-05-02T10:37:58.777Z,11.97
2023-05-02T10:43:05.480Z,12.18
2023-05-02T10:48:18.835Z,12.34
2023-05-02T10:53:29.951Z,11.78
2023-05-02T10:58:34.271Z,12.29
2023-05-02T11:03:57.376Z,12.47
2023-05-02T11:09:31.545Z,12.81
2023-05-02T11:14:47.458Z,12.75
2023-05-02T11:20:30.060Z,14.69
2023-05-02T11:25:38.094Z,13.01
2023-05-02T11:30:44.208Z,13.21
2023-05-02T11:35:48.851Z,14.23
2023-05-02T11:40:56.734Z,15.53
2023-05-02T11:46:02.602Z,16.33
2023-05-02T11:51:07.193Z,15.43
2023-05-02T11:56:10.158Z,14.02
2023-05-02T12:01:17.424Z,13.34
2023-05-02T12:06:20.690Z,13.76
2023-05-02T12:11:24.777Z,13.83
2023-05-02T12:16:29.127Z,13.03
2023-05-02T12:21:32.917Z,12.92
2023-05-02T12:26:35.830Z,13.23
2023-05-02T12:31:40.032Z,11.31
2023-05-02T12:36:45.302Z,12.68
2023-05-02T12:41:48.139Z,13.78
2023-05-02T12:47:01.988Z,13.90
2023-05-02T12:52:05.160Z,13.86
2023-05-02T12:57:09.182Z,14.95
2023-05-02T13:02:13.460Z,13.71
2023-05-02T13:07:16.236Z,14.32
2023-05-02T13:12:19.097Z,14.04
2023-05-02T13:17:23.308Z,13.45
2023-05-02T13:22:26.324Z,13.01
2023-05-02T13:27:29.112Z,15.30
2023-05-02T13:32:33.373Z,16.04
2023-05-02T13:37:36.150Z,14.40
2023-05-02T13:42:38.906Z,14.75
2023-05-02T13:47:43.083Z,13.90
2023-05-02T13:52:48.354Z,13.05
2023-05-02T13:57:51.871Z,13.74
2023-05-02T14:02:56.174Z,14.29
2023-05-02T14:07:58.986Z,14.05
2023-05-02T14:13:01.705Z,13.71
2023-05-02T14:18:05.903Z,14.16
2023-05-02T14:23:08.729Z,14.70
2023-05-02T14:28:11.454Z,14.27
2023-05-02T14:33:15.837Z,13.72
2023-05-02T14:38:18.580Z,13.72
2023-05-02T14:43:22.407Z,13.92
2023-05-02T14:48:26.791Z,13.79
2023-05-02T14:53:29.731Z,13.79
2023-05-02T14:58:32.506Z,13.16
2023-05-02T15:03:49.094Z,13.47
2023-05-02T15:08:59.352Z,13.38
2023-05-02T15:14:02.126Z,13.75
2023-05-02T15:19:06.339Z,13.59
2023-05-02T15:24:09.302Z,12.41
2023-05-02T15:29:12.094Z,13.30
2023-05-02T15:34:16.499Z,13.75
2023-05-02T15:39:19.292Z,13.19
2023-05-02T15:44:22.319Z,12.36
2023-05-02T15:49:31.570Z,12.94
2023-05-02T15:54:34.410Z,13.26
2023-05-02T15:59:37.143Z,13.40
2023-05-02T16:04:43.037Z,13.40
2023-05-02T16:09:46.283Z,13.41
2023-05-02T16:14:49.081Z,12.99
2023-05-02T16:19:53.238Z,13.05
2023-05-02T16:24:56.025Z,12.99
2023-05-02T16:30:00.089Z,12.97
2023-05-02T16:35:07.261Z,12.98
2023-05-02T16:40:11.208Z,12.82
2023-05-02T16:45:14.620Z,12.59
2023-05-02T16:50:18.807Z,12.45
2023-05-02T16:55:21.868Z,12.37
2023-05-02T17:00:24.869Z,12.16
2023-05-02T17:05:29.170Z,12.10
2023-05-02T17:10:32.249Z,11.87
2023-05-02T17:15:39.097Z,11.66
2023-05-02T17:20:43.458Z,11.75
2023-05-02T17:25:46.837Z,11.82
2023-05-02T17:30:54.384Z,11.67
2023-05-02T17:35:58.744Z,11.49
2023-05-02T17:41:03.902Z,11.39
2023-05-02T17:46:10.170Z,11.22
2023-05-02T17:51:14.438Z,11.15
2023-05-02T17:56:18.715Z,11.06
2023-05-02T18:01:21.611Z,10.91
2023-05-02T18:06:27.441Z,10.77
2023-05-02T18:11:32.036Z,10.75
2023-05-02T18:16:36.241Z,10.73
2023-05-02T18:21:40.808Z,10.72
2023-05-02T18:26:43.717Z,10.70
2023-05-02T18:31:52.630Z,10.46
2023-05-02T18:36:59.904Z,10.55
2023-05-02T18:42:04.045Z,10.39
2023-05-02T18:47:06.896Z,10.38
2023-05-02T18:52:11.053Z,10.20
2023-05-02T18:57:14.101Z,10.12
2023-05-02T19:02:16.967Z,10.07
2023-05-02T19:07:21.103Z,9.99
2023-05-02T19:12:23.862Z,9.86
2023-05-02T19:17:26.785Z,9.97
2023-05-02T19:22:33.658Z,9.89
2023-05-02T19:27:36.499Z,9.94
2023-05-02T19:32:39.284Z,9.98
2023-05-02T19:37:43.995Z,10.03
2023-05-02T19:42:46.787Z,10.02
2023-05-02T19:47:49.577Z,10.00
2023-05-02T19:52:53.692Z,9.96
2023-05-02T19:57:56.490Z,9.88
2023-05-02T20:02:59.553Z,9.85
2023-05-02T20:08:03.734Z,9.57
2023-05-02T20:13:06.712Z,9.56
2023-05-02T20:18:09.558Z,9.48
2023-05-02T20:23:14.148Z,9.45
2023-05-02T20:28:17.043Z,9.39
2023-05-02T20:33:20.012Z,9.35
2023-05-02T20:38:24.743Z,9.32
2023-05-02T20:43:28.915Z,9.32
2023-05-02T20:48:31.632Z,9.29
2023-05-02T20:53:36.638Z,9.26
2023-05-02T20:58:39.326Z,9.15
2023-05-02T21:03:42.050Z,9.06
2023-05-02T21:08:46.278Z,8.80
2023-05-02T21:13:48.972Z,8.89
2023-05-02T21:18:51.560Z,9.08
2023-05-02T21:23:56.049Z,9.05
2023-05-02T21:28:58.880Z,9.04
2023-05-02T21:34:02.983Z,8.98
2023-05-02T21:39:07.793Z,8.89
2023-05-02T21:44:13.870Z,8.72
2023-05-02T21:49:17.055Z,8.53
2023-05-02T21:54:21.717Z,8.37
2023-05-02T21:59:24.773Z,8.28
2023-05-02T22:04:31.509Z,8.11
2023-05-02T22:09:36.224Z,8.04
2023-05-02T22:14:45.265Z,7.86
2023-05-02T22:19:49.449Z,7.74
2023-05-02T22:24:53.575Z,7.76
2023-05-02T22:29:56.549Z,7.67
2023-05-02T22:34:59.369Z,7.58
2023-05-02T22:40:03.840Z,7.39
2023-05-02T22:45:09.533Z,7.35
2023-05-02T22:50:13.071Z,7.21
2023-05-02T22:55:17.460Z,7.21
2023-05-02T23:00:22.507Z,7.12
2023-05-02T23:05:25.274Z,7.13
2023-05-02T23:10:29.451Z,7.04
2023-05-02T23:15:32.226Z,6.97
2023-05-02T23:20:35.227Z,6.93
2023-05-02T23:25:39.988Z,6.84
2023-05-02T23:30:42.756Z,6.77
2023-05-02T23:35:45.489Z,6.68
2023-05-02T23:40:49.682Z,6.63
2023-05-02T23:45:52.433Z,6.57
2023-05-02T23:50:55.167Z,6.43
2023-05-02T23:56:00.191Z,6.33
